createdAt,value
2022-07-30T00:00:02.610Z,2.70
2022-07-30T00:00:12.643Z,2.40
2022-07-30T00:00:25.118Z,2.20
2022-07-30T00:00:32.587Z,2.20
2022-07-30T00:00:42.624Z,2.30
2022-07-30T00:00:52.737Z,2.30
2022-07-30T00:01:02.691Z,2.20
2022-07-30T00:01:12.765Z,2.30
2022-07-30T00:01:22.739Z,3.00
2022-07-30T00:01:32.701Z,3.20
2022-07-30T00:01:42.682Z,3.10
2022-07-30T00:01:52.633Z,2.70
2022-07-30T00:02:02.706Z,2.60
2022-07-30T00:02:12.613Z,2.50
2022-07-30T00:02:22.620Z,2.30
2022-07-30T00:02:32.596Z,2.10
2022-07-30T00:02:42.639Z,2.10
2022-07-30T00:02:52.615Z,2.30
2022-07-30T00:03:02.610Z,2.50
2022-07-30T00:03:12.632Z,2.40
2022-07-30T00:03:22.782Z,2.20
2022-07-30T00:03:32.650Z,2.30
2022-07-30T00:03:42.747Z,2.60
2022-07-30T00:03:52.799Z,2.80
2022-07-30T00:04:02.672Z,2.70
2022-07-30T00:04:12.644Z,2.40
2022-07-30T00:04:22.628Z,2.50
2022-07-30T00:04:32.677Z,2.60
2022-07-30T00:04:42.719Z,2.70
2022-07-30T00:04:52.666Z,2.60
2022-07-30T00:05:02.625Z,2.60
2022-07-30T00:05:12.637Z,2.30
2022-07-30T00:05:22.631Z,1.90
2022-07-30T00:05:32.717Z,2.00
2022-07-30T00:05:42.689Z,2.50
2022-07-30T00:05:52.644Z,2.70
2022-07-30T00:06:02.680Z,2.70
2022-07-30T00:06:12.685Z,2.40
2022-07-30T00:06:22.635Z,2.20
2022-07-30T00:06:32.597Z,2.50
2022-07-30T00:06:42.676Z,2.40
2022-07-30T00:06:52.636Z,2.50
2022-07-30T00:07:03.085Z,2.20
2022-07-30T00:07:12.648Z,2.60
2022-07-30T00:07:22.687Z,2.70
2022-07-30T00:07:32.624Z,2.50
2022-07-30T00:07:42.698Z,2.20
2022-07-30T00:07:52.690Z,2.00
2022-07-30T00:08:02.681Z,2.30
2022-07-30T00:08:12.588Z,2.40
2022-07-30T00:08:22.713Z,2.90
2022-07-30T00:08:32.587Z,2.80
2022-07-30T00:08:42.654Z,2.60
2022-07-30T00:08:52.672Z,2.40
2022-07-30T00:09:02.699Z,2.60
2022-07-30T00:09:12.692Z,2.70
2022-07-30T00:09:22.651Z,2.50
2022-07-30T00:09:34.227Z,2.50
2022-07-30T00:09:42.701Z,2.70
2022-07-30T00:09:52.674Z,3.20
2022-07-30T00:10:02.634Z,3.70
2022-07-30T00:10:12.627Z,3.40
2022-07-30T00:10:22.673Z,3.30
2022-07-30T00:10:32.610Z,2.80
2022-07-30T00:10:42.674Z,2.60
2022-07-30T00:10:52.693Z,2.30
2022-07-30T00:11:02.655Z,2.10
2022-07-30T00:11:12.609Z,2.40
2022-07-30T00:11:27.484Z,2.20
2022-07-30T00:11:32.658Z,2.40
2022-07-30T00:11:42.593Z,2.20
2022-07-30T00:11:52.650Z,2.20
2022-07-30T00:12:02.717Z,2.30
2022-07-30T00:12:12.701Z,2.50
2022-07-30T00:12:22.663Z,2.50
2022-07-30T00:12:32.702Z,2.20
2022-07-30T00:12:42.666Z,2.00
2022-07-30T00:12:52.694Z,2.20
2022-07-30T00:13:02.700Z,2.30
2022-07-30T00:13:14.278Z,2.60
2022-07-30T00:13:22.696Z,2.50
2022-07-30T00:13:32.713Z,2.50
2022-07-30T00:13:42.699Z,2.30
2022-07-30T00:13:52.656Z,2.40
2022-07-30T00:14:02.687Z,2.50
2022-07-30T00:14:12.649Z,2.60
2022-07-30T00:14:22.609Z,2.50
2022-07-30T00:14:32.682Z,2.50
2022-07-30T00:14:42.713Z,2.10
2022-07-30T00:14:52.627Z,2.10
2022-07-30T00:15:02.686Z,2.10
2022-07-30T00:15:12.637Z,2.30
2022-07-30T00:15:22.604Z,2.00
2022-07-30T00:15:32.708Z,2.10
2022-07-30T00:15:42.634Z,2.30
2022-07-30T00:15:52.618Z,2.40
2022-07-30T00:16:02.698Z,2.30
2022-07-30T00:16:12.763Z,2.10
2022-07-30T00:16:22.753Z,1.90
2022-07-30T00:16:32.740Z,2.00
2022-07-30T00:16:42.679Z,2.00
2022-07-30T00:16:52.752Z,2.30
2022-07-30T00:17:03.420Z,2.50
2022-07-30T00:17:12.719Z,2.70
2022-07-30T00:17:22.604Z,2.70
2022-07-30T00:17:32.670Z,2.40
2022-07-30T00:17:42.637Z,2.40
2022-07-30T00:17:52.592Z,2.40
2022-07-30T00:18:02.701Z,2.50
2022-07-30T00:18:12.608Z,2.20
2022-07-30T00:18:22.685Z,2.30
2022-07-30T00:18:32.653Z,2.00
2022-07-30T00:18:42.696Z,2.20
2022-07-30T00:18:52.645Z,2.10
2022-07-30T00:19:02.611Z,2.30
2022-07-30T00:19:12.665Z,2.30
2022-07-30T00:19:22.705Z,2.30
2022-07-30T00:19:32.654Z,2.20
2022-07-30T00:19:42.626Z,1.90
2022-07-30T00:19:52.649Z,1.90
2022-07-30T00:20:02.923Z,2.00
2022-07-30T00:20:12.647Z,2.20
2022-07-30T00:20:22.718Z,2.20
2022-07-30T00:20:32.628Z,2.10
2022-07-30T00:20:44.270Z,2.10
2022-07-30T00:20:52.601Z,2.40
2022-07-30T00:21:02.707Z,2.70
2022-07-30T00:21:12.639Z,3.10
2022-07-30T00:21:36.110Z,2.70
2022-07-30T00:21:38.467Z,3.00
2022-07-30T00:21:42.655Z,2.30
2022-07-30T00:21:52.627Z,2.20
2022-07-30T00:22:02.604Z,2.30
2022-07-30T00:22:12.657Z,2.30
2022-07-30T00:22:22.597Z,2.30
2022-07-30T00:22:32.639Z,2.00
2022-07-30T00:22:42.702Z,1.80
2022-07-30T00:22:52.622Z,1.80
2022-07-30T00:23:02.641Z,2.00
2022-07-30T00:23:12.703Z,2.30
2022-07-30T00:23:22.669Z,2.50
2022-07-30T00:23:32.681Z,2.40
2022-07-30T00:23:42.697Z,2.20
2022-07-30T00:24:01.846Z,2.00
2022-07-30T00:24:02.726Z,2.30
2022-07-30T00:24:12.685Z,2.30
2022-07-30T00:24:22.680Z,2.50
2022-07-30T00:24:32.713Z,2.40
2022-07-30T00:24:42.608Z,2.30
2022-07-30T00:24:52.686Z,2.30
2022-07-30T00:25:02.699Z,2.10
2022-07-30T00:25:12.608Z,2.00
2022-07-30T00:25:22.716Z,1.90
2022-07-30T00:25:32.613Z,2.00
2022-07-30T00:25:42.641Z,2.10
2022-07-30T00:25:52.732Z,2.00
2022-07-30T00:26:02.716Z,2.10
2022-07-30T00:26:12.698Z,2.30
2022-07-30T00:26:22.618Z,2.50
2022-07-30T00:26:32.718Z,2.30
2022-07-30T00:26:42.710Z,2.20
2022-07-30T00:26:52.728Z,2.50
2022-07-30T00:27:02.981Z,2.60
2022-07-30T00:27:12.586Z,2.50
2022-07-30T00:27:22.704Z,2.20
2022-07-30T00:27:32.633Z,2.20
2022-07-30T00:27:42.630Z,2.40
2022-07-30T00:27:52.620Z,2.40
2022-07-30T00:28:02.613Z,2.30
2022-07-30T00:28:12.685Z,2.50
2022-07-30T00:28:22.705Z,2.30
2022-07-30T00:28:32.613Z,2.20
2022-07-30T00:28:42.670Z,2.00
2022-07-30T00:28:52.694Z,2.00
2022-07-30T00:29:02.659Z,2.10
2022-07-30T00:29:12.602Z,2.20
2022-07-30T00:29:22.613Z,2.30
2022-07-30T00:29:32.674Z,2.50
2022-07-30T00:29:44.939Z,2.50
2022-07-30T00:29:52.597Z,2.50
2022-07-30T00:30:02.684Z,2.40
2022-07-30T00:30:12.660Z,2.20
2022-07-30T00:30:22.720Z,2.30
2022-07-30T00:30:32.676Z,2.20
2022-07-30T00:30:42.633Z,2.00
2022-07-30T00:30:56.189Z,2.00
2022-07-30T00:31:02.677Z,2.20
2022-07-30T00:31:12.704Z,2.70
2022-07-30T00:31:22.697Z,2.70
2022-07-30T00:31:32.710Z,2.50
2022-07-30T00:31:42.669Z,2.60
2022-07-30T00:31:52.683Z,2.50
2022-07-30T00:32:02.653Z,2.60
2022-07-30T00:32:12.622Z,2.20
2022-07-30T00:32:22.660Z,2.30
2022-07-30T00:32:32.621Z,2.40
2022-07-30T00:32:42.632Z,2.30
2022-07-30T00:32:52.620Z,2.20
2022-07-30T00:33:02.587Z,2.10
2022-07-30T00:33:12.605Z,2.10
2022-07-30T00:33:22.608Z,2.00
2022-07-30T00:33:32.617Z,2.00
2022-07-30T00:33:42.611Z,2.00
2022-07-30T00:33:52.659Z,2.10
2022-07-30T00:34:02.637Z,2.30
2022-07-30T00:34:12.709Z,2.30
2022-07-30T00:34:22.632Z,2.40
2022-07-30T00:34:32.619Z,2.10
2022-07-30T00:34:42.694Z,2.10
2022-07-30T00:34:52.701Z,1.90
2022-07-30T00:35:02.617Z,2.30
2022-07-30T00:35:12.704Z,2.50
2022-07-30T00:35:22.587Z,2.20
2022-07-30T00:35:32.584Z,2.20
2022-07-30T00:35:42.604Z,1.90
2022-07-30T00:35:52.658Z,2.20
2022-07-30T00:36:02.696Z,2.30
2022-07-30T00:36:12.660Z,2.60
2022-07-30T00:36:22.613Z,2.60
2022-07-30T00:36:32.701Z,2.70
2022-07-30T00:36:42.706Z,2.50
2022-07-30T00:36:52.714Z,2.50
2022-07-30T00:37:03.156Z,2.20
2022-07-30T00:37:12.621Z,2.30
2022-07-30T00:37:22.628Z,2.40
2022-07-30T00:37:32.625Z,2.40
2022-07-30T00:37:42.698Z,2.10
2022-07-30T00:37:52.603Z,2.00
2022-07-30T00:38:02.607Z,2.30
2022-07-30T00:38:12.695Z,2.50
2022-07-30T00:38:22.705Z,2.40
2022-07-30T00:38:32.670Z,2.20
2022-07-30T00:38:42.675Z,2.40
2022-07-30T00:38:52.665Z,2.60
2022-07-30T00:39:02.624Z,3.00
2022-07-30T00:39:12.620Z,2.90
2022-07-30T00:39:22.594Z,3.00
2022-07-30T00:39:32.656Z,2.90
2022-07-30T00:39:42.711Z,2.80
2022-07-30T00:39:52.628Z,2.50
2022-07-30T00:40:02.671Z,2.50
2022-07-30T00:40:12.636Z,2.50
2022-07-30T00:40:22.623Z,2.50
2022-07-30T00:40:32.585Z,1.90
2022-07-30T00:40:42.677Z,1.90
2022-07-30T00:40:52.646Z,1.70
2022-07-30T00:41:02.666Z,2.40
2022-07-30T00:41:12.715Z,2.40
2022-07-30T00:41:22.678Z,2.70
2022-07-30T00:41:32.608Z,2.30
2022-07-30T00:41:42.720Z,2.00
2022-07-30T00:41:52.634Z,2.00
2022-07-30T00:42:02.640Z,2.10
2022-07-30T00:42:12.593Z,2.20
2022-07-30T00:42:22.720Z,2.20
2022-07-30T00:42:32.667Z,2.30
2022-07-30T00:42:42.698Z,2.40
2022-07-30T00:42:52.624Z,2.50
2022-07-30T00:43:02.711Z,2.70
2022-07-30T00:43:12.612Z,2.40
2022-07-30T00:43:22.714Z,2.70
2022-07-30T00:43:32.594Z,2.80
2022-07-30T00:43:42.626Z,3.30
2022-07-30T00:43:52.620Z,2.60
2022-07-30T00:44:02.648Z,2.50
2022-07-30T00:44:12.695Z,2.00
2022-07-30T00:44:22.676Z,2.30
2022-07-30T00:44:32.622Z,2.10
2022-07-30T00:44:42.693Z,2.30
2022-07-30T00:44:52.684Z,2.30
2022-07-30T00:45:02.647Z,2.70
2022-07-30T00:45:12.617Z,2.80
2022-07-30T00:45:22.675Z,2.60
2022-07-30T00:45:32.729Z,2.30
2022-07-30T00:45:42.701Z,2.40
2022-07-30T00:45:52.743Z,2.40
2022-07-30T00:46:02.666Z,2.80
2022-07-30T00:46:12.787Z,2.70
2022-07-30T00:46:22.688Z,2.90
2022-07-30T00:46:32.620Z,2.70
2022-07-30T00:46:42.657Z,2.90
2022-07-30T00:46:52.700Z,2.70
2022-07-30T00:47:03.165Z,2.80
2022-07-30T00:47:12.714Z,2.50
2022-07-30T00:47:22.594Z,2.90
2022-07-30T00:47:32.640Z,2.80
2022-07-30T00:47:42.653Z,2.90
2022-07-30T00:47:52.692Z,2.60
2022-07-30T00:48:02.598Z,2.80
2022-07-30T00:48:12.674Z,2.70
2022-07-30T00:48:22.692Z,2.80
2022-07-30T00:48:32.718Z,2.60
2022-07-30T00:48:42.679Z,2.90
2022-07-30T00:48:52.722Z,3.20
2022-07-30T00:49:02.714Z,3.50
2022-07-30T00:49:12.664Z,3.40
2022-07-30T00:49:22.659Z,3.30
2022-07-30T00:49:32.634Z,3.00
2022-07-30T00:49:44.342Z,3.50
2022-07-30T00:49:52.669Z,3.30
2022-07-30T00:50:02.694Z,3.20
2022-07-30T00:50:12.652Z,3.10
2022-07-30T00:50:22.696Z,2.90
2022-07-30T00:50:32.646Z,3.10
2022-07-30T00:50:42.617Z,2.90
2022-07-30T00:50:52.682Z,3.10
2022-07-30T00:51:02.702Z,3.10
2022-07-30T00:51:12.642Z,3.30
2022-07-30T00:51:22.585Z,3.00
2022-07-30T00:51:32.692Z,3.10
2022-07-30T00:51:42.714Z,2.70
2022-07-30T00:51:52.688Z,2.90
2022-07-30T00:52:02.590Z,2.60
2022-07-30T00:52:12.690Z,2.50
2022-07-30T00:52:22.649Z,2.50
2022-07-30T00:52:32.723Z,2.80
2022-07-30T00:52:42.656Z,3.00
2022-07-30T00:52:52.674Z,3.20
2022-07-30T00:53:02.607Z,3.20
2022-07-30T00:53:12.718Z,3.10
2022-07-30T00:53:22.685Z,3.10
2022-07-30T00:53:32.608Z,3.10
2022-07-30T00:53:42.611Z,3.20
2022-07-30T00:53:52.676Z,2.80
2022-07-30T00:54:02.617Z,2.80
2022-07-30T00:54:12.675Z,3.20
2022-07-30T00:54:22.723Z,3.40
2022-07-30T00:54:32.653Z,3.40
2022-07-30T00:54:42.682Z,3.00
2022-07-30T00:54:52.693Z,3.50
2022-07-30T00:55:02.585Z,3.30
2022-07-30T00:55:12.720Z,3.70
2022-07-30T00:55:22.668Z,3.40
2022-07-30T00:55:32.642Z,3.60
2022-07-30T00:55:42.655Z,3.40
2022-07-30T00:55:52.660Z,3.50
2022-07-30T00:56:02.605Z,3.50
2022-07-30T00:56:12.720Z,3.40
2022-07-30T00:56:22.667Z,3.20
2022-07-30T00:56:32.639Z,2.80
2022-07-30T00:56:42.649Z,2.70
2022-07-30T00:56:52.646Z,2.60
2022-07-30T00:57:03.013Z,2.90
2022-07-30T00:57:12.693Z,2.90
2022-07-30T00:57:22.629Z,2.80
2022-07-30T00:57:32.713Z,2.40
2022-07-30T00:57:42.712Z,2.40
2022-07-30T00:57:52.644Z,2.50
2022-07-30T00:58:02.621Z,2.60
2022-07-30T00:58:12.686Z,2.80
2022-07-30T00:58:22.678Z,2.80
2022-07-30T00:58:32.713Z,3.00
2022-07-30T00:58:42.639Z,3.00
2022-07-30T00:58:52.633Z,3.50
2022-07-30T00:59:02.653Z,3.40
2022-07-30T00:59:12.695Z,3.30
2022-07-30T00:59:22.632Z,3.30
2022-07-30T00:59:32.610Z,3.00
2022-07-30T00:59:42.652Z,2.90
2022-07-30T00:59:52.619Z,2.60
2022-07-30T01:00:02.644Z,2.90
2022-07-30T01:00:12.685Z,3.00
2022-07-30T01:00:22.706Z,3.00
2022-07-30T01:00:32.628Z,2.60
2022-07-30T01:00:42.678Z,2.70
2022-07-30T01:00:52.660Z,2.70
2022-07-30T01:01:02.762Z,2.80
2022-07-30T01:01:12.727Z,3.00
2022-07-30T01:01:22.704Z,3.20
2022-07-30T01:01:32.851Z,3.30
2022-07-30T01:01:42.706Z,2.90
2022-07-30T01:01:52.672Z,2.90
2022-07-30T01:02:02.776Z,3.10
2022-07-30T01:02:12.632Z,3.20
2022-07-30T01:02:22.715Z,3.10
2022-07-30T01:02:32.673Z,3.10
2022-07-30T01:02:42.627Z,3.20
2022-07-30T01:02:52.600Z,3.30
2022-07-30T01:03:02.689Z,3.30
2022-07-30T01:03:12.627Z,3.50
2022-07-30T01:03:22.683Z,3.30
2022-07-30T01:03:32.703Z,3.30
2022-07-30T01:03:42.702Z,3.00
2022-07-30T01:03:52.670Z,3.20
2022-07-30T01:04:02.621Z,3.20
2022-07-30T01:04:12.627Z,3.30
2022-07-30T01:04:22.653Z,3.00
2022-07-30T01:04:32.601Z,3.00
2022-07-30T01:04:42.649Z,3.20
2022-07-30T01:04:52.749Z,3.40
2022-07-30T01:05:02.671Z,3.30
2022-07-30T01:05:12.690Z,3.10
2022-07-30T01:05:22.595Z,3.30
2022-07-30T01:05:32.714Z,3.50
2022-07-30T01:05:42.700Z,3.50
2022-07-30T01:05:52.688Z,3.30
2022-07-30T01:06:02.665Z,3.20
2022-07-30T01:06:14.196Z,3.40
2022-07-30T01:06:22.696Z,3.50
2022-07-30T01:06:32.678Z,3.70
2022-07-30T01:06:42.609Z,3.40
2022-07-30T01:06:52.667Z,3.70
2022-07-30T01:07:03.026Z,3.40
2022-07-30T01:07:12.658Z,3.60
2022-07-30T01:07:27.346Z,3.80
2022-07-30T01:07:32.608Z,3.70
2022-07-30T01:07:42.586Z,3.60
2022-07-30T01:07:52.626Z,3.30
2022-07-30T01:08:02.689Z,3.30
2022-07-30T01:08:12.593Z,3.70
2022-07-30T01:08:22.612Z,3.80
2022-07-30T01:08:32.732Z,3.70
2022-07-30T01:08:42.628Z,3.50
2022-07-30T01:08:52.625Z,3.30
2022-07-30T01:09:02.705Z,3.40
2022-07-30T01:09:12.586Z,3.30
2022-07-30T01:09:22.701Z,3.20
2022-07-30T01:09:32.679Z,3.30
2022-07-30T01:09:42.618Z,3.40
2022-07-30T01:09:52.699Z,3.60
2022-07-30T01:10:02.670Z,4.00
2022-07-30T01:10:12.726Z,3.90
2022-07-30T01:10:22.640Z,3.80
2022-07-30T01:10:32.636Z,3.40
2022-07-30T01:10:42.626Z,3.50
2022-07-30T01:10:52.739Z,3.70
2022-07-30T01:11:02.687Z,4.00
2022-07-30T01:11:12.653Z,4.30
2022-07-30T01:11:22.692Z,3.90
2022-07-30T01:11:32.687Z,3.70
2022-07-30T01:11:42.622Z,3.50
2022-07-30T01:11:52.632Z,3.50
2022-07-30T01:12:02.707Z,3.40
2022-07-30T01:12:12.633Z,3.40
2022-07-30T01:12:22.584Z,3.50
2022-07-30T01:12:32.683Z,3.60
2022-07-30T01:12:42.717Z,3.70
2022-07-30T01:12:52.697Z,3.70
2022-07-30T01:13:02.618Z,3.70
2022-07-30T01:13:12.615Z,3.40
2022-07-30T01:13:22.586Z,3.30
2022-07-30T01:13:32.605Z,3.40
2022-07-30T01:13:42.680Z,3.50
2022-07-30T01:13:52.600Z,3.60
2022-07-30T01:14:02.688Z,3.40
2022-07-30T01:14:12.622Z,3.70
2022-07-30T01:14:22.597Z,3.90
2022-07-30T01:14:32.717Z,4.10
2022-07-30T01:14:42.645Z,4.00
2022-07-30T01:14:52.712Z,3.80
2022-07-30T01:15:02.652Z,3.90
2022-07-30T01:15:12.614Z,3.70
2022-07-30T01:15:22.710Z,3.80
2022-07-30T01:15:32.635Z,3.70
2022-07-30T01:15:42.595Z,3.70
2022-07-30T01:15:52.661Z,3.80
2022-07-30T01:16:02.682Z,3.70
2022-07-30T01:16:12.645Z,3.80
2022-07-30T01:16:22.707Z,3.60
2022-07-30T01:16:32.672Z,3.60
2022-07-30T01:16:42.792Z,3.80
2022-07-30T01:16:52.693Z,3.80
2022-07-30T01:17:03.013Z,3.50
2022-07-30T01:17:12.717Z,3.50
2022-07-30T01:17:22.632Z,3.50
2022-07-30T01:17:32.643Z,4.00
2022-07-30T01:17:42.597Z,4.00
2022-07-30T01:17:52.874Z,4.00
2022-07-30T01:18:02.612Z,3.60
2022-07-30T01:18:12.648Z,3.50
2022-07-30T01:18:22.608Z,3.60
2022-07-30T01:18:32.682Z,3.90
2022-07-30T01:18:42.693Z,3.80
2022-07-30T01:18:52.655Z,3.50
2022-07-30T01:19:02.705Z,3.70
2022-07-30T01:19:12.689Z,3.70
2022-07-30T01:19:22.630Z,4.00
2022-07-30T01:19:32.663Z,3.60
2022-07-30T01:19:42.661Z,3.50
2022-07-30T01:19:52.679Z,3.20
2022-07-30T01:20:02.756Z,3.10
2022-07-30T01:20:12.599Z,3.30
2022-07-30T01:20:22.592Z,3.30
2022-07-30T01:20:32.692Z,3.60
2022-07-30T01:20:42.598Z,3.50
2022-07-30T01:20:52.589Z,3.90
2022-07-30T01:21:02.697Z,4.00
2022-07-30T01:21:12.607Z,4.20
2022-07-30T01:21:22.622Z,4.20
2022-07-30T01:21:32.618Z,4.10
2022-07-30T01:21:42.701Z,4.00
2022-07-30T01:21:52.688Z,3.60
2022-07-30T01:22:02.668Z,3.50
2022-07-30T01:22:12.654Z,3.30
2022-07-30T01:22:22.722Z,3.60
2022-07-30T01:22:32.597Z,3.50
2022-07-30T01:22:42.711Z,3.30
2022-07-30T01:22:52.612Z,3.30
2022-07-30T01:23:02.717Z,3.30
2022-07-30T01:23:12.650Z,3.40
2022-07-30T01:23:22.606Z,3.20
2022-07-30T01:23:32.593Z,3.30
2022-07-30T01:23:43.447Z,3.50
2022-07-30T01:23:52.589Z,3.30
2022-07-30T01:24:02.777Z,3.20
2022-07-30T01:24:12.634Z,3.10
2022-07-30T01:24:22.643Z,3.50
2022-07-30T01:24:32.645Z,4.00
2022-07-30T01:24:42.701Z,4.30
2022-07-30T01:24:52.755Z,4.10
2022-07-30T01:25:02.677Z,4.00
2022-07-30T01:25:12.715Z,3.50
2022-07-30T01:25:22.680Z,3.50
2022-07-30T01:25:32.649Z,3.40
2022-07-30T01:25:42.631Z,3.80
2022-07-30T01:25:53.273Z,3.90
2022-07-30T01:26:02.658Z,4.00
2022-07-30T01:26:12.694Z,3.90
2022-07-30T01:26:22.709Z,3.70
2022-07-30T01:26:32.676Z,3.50
2022-07-30T01:26:42.657Z,3.40
2022-07-30T01:26:52.809Z,3.10
2022-07-30T01:27:03.429Z,3.30
2022-07-30T01:27:14.028Z,3.30
2022-07-30T01:27:22.610Z,3.20
2022-07-30T01:27:32.705Z,3.00
2022-07-30T01:27:42.714Z,3.00
2022-07-30T01:27:52.699Z,3.00
2022-07-30T01:28:02.585Z,3.20
2022-07-30T01:28:12.719Z,3.50
2022-07-30T01:28:22.688Z,3.40
2022-07-30T01:28:32.602Z,3.40
2022-07-30T01:28:42.620Z,3.30
2022-07-30T01:28:52.724Z,3.50
2022-07-30T01:29:02.821Z,3.30
2022-07-30T01:29:13.160Z,3.20
2022-07-30T01:29:22.701Z,2.90
2022-07-30T01:29:32.728Z,3.20
2022-07-30T01:29:42.856Z,3.20
2022-07-30T01:29:52.995Z,3.50
2022-07-30T01:30:02.701Z,3.30
2022-07-30T01:30:12.607Z,3.60
2022-07-30T01:30:22.590Z,3.40
2022-07-30T01:30:32.707Z,3.60
2022-07-30T01:30:42.651Z,3.30
2022-07-30T01:30:52.641Z,3.20
2022-07-30T01:31:02.646Z,3.30
2022-07-30T01:31:12.757Z,3.30
2022-07-30T01:31:22.741Z,3.80
2022-07-30T01:31:32.679Z,3.70
2022-07-30T01:31:42.748Z,3.80
2022-07-30T01:31:52.718Z,3.50
2022-07-30T01:32:02.734Z,3.40
2022-07-30T01:32:12.704Z,3.50
2022-07-30T01:32:22.610Z,3.30
2022-07-30T01:32:32.660Z,3.30
2022-07-30T01:32:42.630Z,3.00
2022-07-30T01:32:52.615Z,3.00
2022-07-30T01:33:02.625Z,2.90
2022-07-30T01:33:12.622Z,2.90
2022-07-30T01:33:22.692Z,2.90
2022-07-30T01:33:32.849Z,3.10
2022-07-30T01:33:42.681Z,3.20
2022-07-30T01:33:52.697Z,3.30
2022-07-30T01:34:02.592Z,3.30
2022-07-30T01:34:12.643Z,3.30
2022-07-30T01:34:22.710Z,3.00
2022-07-30T01:34:32.641Z,3.10
2022-07-30T01:34:43.203Z,3.00
2022-07-30T01:34:53.025Z,3.20
2022-07-30T01:35:02.723Z,3.10
2022-07-30T01:35:12.697Z,3.00
2022-07-30T01:35:22.592Z,3.00
2022-07-30T01:35:32.684Z,3.00
2022-07-30T01:35:42.631Z,3.10
2022-07-30T01:35:52.670Z,3.00
2022-07-30T01:36:02.633Z,2.90
2022-07-30T01:36:12.691Z,2.90
2022-07-30T01:36:22.640Z,2.90
2022-07-30T01:36:32.593Z,3.00
2022-07-30T01:36:42.618Z,2.90
2022-07-30T01:36:52.667Z,2.90
2022-07-30T01:37:03.162Z,2.80
2022-07-30T01:37:12.675Z,3.00
2022-07-30T01:37:22.620Z,2.90
2022-07-30T01:37:32.665Z,3.30
2022-07-30T01:37:42.668Z,3.20
2022-07-30T01:37:52.697Z,3.70
2022-07-30T01:38:02.610Z,3.30
2022-07-30T01:38:12.644Z,2.90
2022-07-30T01:38:22.671Z,2.50
2022-07-30T01:38:35.033Z,2.50
2022-07-30T01:38:42.640Z,2.70
2022-07-30T01:38:52.697Z,2.90
2022-07-30T01:39:02.600Z,3.00
2022-07-30T01:39:12.689Z,2.80
2022-07-30T01:39:22.674Z,2.90
2022-07-30T01:39:32.700Z,2.90
2022-07-30T01:39:42.587Z,3.20
2022-07-30T01:39:52.655Z,3.30
2022-07-30T01:40:02.688Z,3.10
2022-07-30T01:40:12.620Z,3.20
2022-07-30T01:40:22.603Z,3.10
2022-07-30T01:40:32.668Z,3.20
2022-07-30T01:40:42.711Z,3.20
2022-07-30T01:40:52.649Z,3.00
2022-07-30T01:41:02.720Z,2.90
2022-07-30T01:41:12.715Z,2.90
2022-07-30T01:41:22.623Z,3.00
2022-07-30T01:41:32.721Z,3.30
2022-07-30T01:41:42.626Z,3.00
2022-07-30T01:41:52.629Z,2.90
2022-07-30T01:42:02.650Z,3.00
2022-07-30T01:42:12.706Z,3.10
2022-07-30T01:42:22.663Z,3.10
2022-07-30T01:42:32.591Z,2.80
2022-07-30T01:42:42.667Z,3.00
2022-07-30T01:42:52.603Z,3.00
2022-07-30T01:43:02.638Z,3.20
2022-07-30T01:43:12.610Z,3.30
2022-07-30T01:43:22.677Z,3.40
2022-07-30T01:43:32.682Z,3.30
2022-07-30T01:43:42.606Z,2.80
2022-07-30T01:43:52.660Z,2.80
2022-07-30T01:44:02.711Z,2.90
2022-07-30T01:44:12.693Z,3.20
2022-07-30T01:44:23.996Z,3.20
2022-07-30T01:44:32.693Z,3.20
2022-07-30T01:44:42.688Z,2.80
2022-07-30T01:44:52.704Z,2.80
2022-07-30T01:45:02.652Z,2.60
2022-07-30T01:45:12.653Z,3.00
2022-07-30T01:45:22.698Z,3.20
2022-07-30T01:45:41.424Z,3.30
2022-07-30T01:45:44.357Z,3.40
2022-07-30T01:45:52.723Z,3.40
2022-07-30T01:46:02.770Z,3.30
2022-07-30T01:46:12.757Z,3.20
2022-07-30T01:46:22.708Z,3.30
2022-07-30T01:46:32.656Z,3.10
2022-07-30T01:46:42.631Z,2.80
2022-07-30T01:46:52.685Z,2.50
2022-07-30T01:47:03.081Z,2.60
2022-07-30T01:47:12.590Z,3.30
2022-07-30T01:47:22.681Z,3.50
2022-07-30T01:47:32.659Z,3.90
2022-07-30T01:47:42.595Z,3.50
2022-07-30T01:47:52.676Z,3.30
2022-07-30T01:48:02.641Z,3.40
2022-07-30T01:48:12.662Z,3.40
2022-07-30T01:48:22.691Z,3.50
2022-07-30T01:48:32.659Z,3.20
2022-07-30T01:48:42.817Z,3.30
2022-07-30T01:48:52.728Z,3.10
2022-07-30T01:49:02.692Z,3.30
2022-07-30T01:49:12.663Z,3.70
2022-07-30T01:49:22.760Z,3.60
2022-07-30T01:49:32.632Z,3.60
2022-07-30T01:49:42.602Z,3.10
2022-07-30T01:49:52.714Z,3.30
2022-07-30T01:50:02.650Z,3.10
2022-07-30T01:50:12.727Z,3.00
2022-07-30T01:50:22.660Z,3.40
2022-07-30T01:50:32.669Z,3.60
2022-07-30T01:50:42.691Z,3.90
2022-07-30T01:50:52.719Z,3.70
2022-07-30T01:51:02.638Z,3.50
2022-07-30T01:51:12.687Z,3.40
2022-07-30T01:51:22.639Z,3.40
2022-07-30T01:51:37.255Z,3.30
2022-07-30T01:51:42.622Z,3.20
2022-07-30T01:51:52.635Z,3.00
2022-07-30T01:52:02.709Z,3.00
2022-07-30T01:52:12.640Z,3.00
2022-07-30T01:52:22.712Z,3.30
2022-07-30T01:52:32.642Z,3.30
2022-07-30T01:52:42.664Z,3.40
2022-07-30T01:52:52.621Z,3.10
2022-07-30T01:53:02.658Z,2.90
2022-07-30T01:53:12.706Z,2.70
2022-07-30T01:53:22.639Z,2.60
2022-07-30T01:53:32.687Z,2.80
2022-07-30T01:53:42.642Z,2.80
2022-07-30T01:53:52.588Z,3.30
2022-07-30T01:54:02.596Z,3.50
2022-07-30T01:54:12.637Z,3.90
2022-07-30T01:54:22.621Z,3.70
2022-07-30T01:54:32.618Z,3.60
2022-07-30T01:54:42.617Z,3.30
2022-07-30T01:54:52.642Z,3.20
2022-07-30T01:55:02.629Z,3.40
2022-07-30T01:55:17.477Z,3.30
2022-07-30T01:55:22.616Z,3.30
2022-07-30T01:55:32.696Z,2.80
2022-07-30T01:55:42.613Z,2.90
2022-07-30T01:55:52.703Z,3.00
2022-07-30T01:56:02.671Z,3.40
2022-07-30T01:56:12.619Z,3.30
2022-07-30T01:56:24.905Z,3.40
2022-07-30T01:56:34.718Z,3.50
2022-07-30T01:56:42.705Z,3.70
2022-07-30T01:56:52.599Z,3.70
2022-07-30T01:57:03.128Z,3.40
2022-07-30T01:57:12.650Z,3.30
2022-07-30T01:57:22.684Z,3.20
2022-07-30T01:57:32.620Z,3.10
2022-07-30T01:57:42.729Z,3.20
2022-07-30T01:57:52.638Z,2.90
2022-07-30T01:58:02.649Z,2.90
2022-07-30T01:58:12.695Z,3.20
2022-07-30T01:58:22.588Z,3.40
2022-07-30T01:58:32.596Z,3.50
2022-07-30T01:58:42.607Z,3.50
2022-07-30T01:58:52.616Z,3.50
2022-07-30T01:59:02.585Z,3.40
2022-07-30T01:59:12.645Z,3.20
2022-07-30T01:59:22.701Z,3.20
2022-07-30T01:59:32.633Z,3.60
2022-07-30T01:59:42.592Z,3.80
2022-07-30T01:59:52.663Z,3.80
2022-07-30T02:00:02.669Z,3.70
2022-07-30T02:00:12.648Z,3.60
2022-07-30T02:00:22.675Z,3.40
2022-07-30T02:00:32.717Z,3.20
2022-07-30T02:00:42.707Z,3.20
2022-07-30T02:00:52.726Z,3.30
2022-07-30T02:01:02.612Z,3.10
2022-07-30T02:01:12.710Z,3.20
2022-07-30T02:01:22.717Z,3.30
2022-07-30T02:01:32.703Z,3.60
2022-07-30T02:01:42.689Z,3.50
2022-07-30T02:01:52.706Z,3.40
2022-07-30T02:02:02.588Z,3.40
2022-07-30T02:02:12.648Z,3.10
2022-07-30T02:02:22.710Z,3.00
2022-07-30T02:02:32.607Z,3.30
2022-07-30T02:02:42.720Z,3.40
2022-07-30T02:02:52.708Z,3.60
2022-07-30T02:03:02.591Z,3.50
2022-07-30T02:03:12.800Z,3.40
2022-07-30T02:03:22.684Z,2.90
2022-07-30T02:03:32.623Z,3.00
2022-07-30T02:03:42.697Z,3.20
2022-07-30T02:03:52.745Z,3.40
2022-07-30T02:04:02.736Z,3.40
2022-07-30T02:04:12.623Z,3.50
2022-07-30T02:04:22.614Z,3.90
2022-07-30T02:04:32.595Z,3.60
2022-07-30T02:04:42.668Z,3.60
2022-07-30T02:04:52.598Z,3.20
2022-07-30T02:05:02.616Z,3.20
2022-07-30T02:05:12.648Z,3.20
2022-07-30T02:05:22.633Z,3.30
2022-07-30T02:05:32.674Z,3.60
2022-07-30T02:05:42.602Z,3.50
2022-07-30T02:05:52.652Z,3.30
2022-07-30T02:06:02.675Z,3.10
2022-07-30T02:06:12.638Z,3.00
2022-07-30T02:06:22.622Z,2.90
2022-07-30T02:06:32.621Z,3.00
2022-07-30T02:06:42.669Z,3.40
2022-07-30T02:06:52.628Z,3.60
2022-07-30T02:07:03.218Z,3.50
2022-07-30T02:07:12.718Z,3.50
2022-07-30T02:07:22.608Z,3.40
2022-07-30T02:07:32.692Z,3.50
2022-07-30T02:07:42.712Z,3.00
2022-07-30T02:07:52.604Z,3.30
2022-07-30T02:08:02.714Z,3.30
2022-07-30T02:08:12.644Z,3.70
2022-07-30T02:08:22.695Z,3.50
2022-07-30T02:08:32.590Z,3.90
2022-07-30T02:08:42.633Z,3.80
2022-07-30T02:08:52.671Z,3.90
2022-07-30T02:09:02.688Z,3.70
2022-07-30T02:09:12.682Z,3.60
2022-07-30T02:09:22.683Z,3.30
2022-07-30T02:09:32.600Z,3.10
2022-07-30T02:09:47.199Z,3.50
2022-07-30T02:09:52.628Z,3.70
2022-07-30T02:10:02.699Z,3.90
2022-07-30T02:10:12.712Z,3.40
2022-07-30T02:10:22.589Z,3.30
2022-07-30T02:10:32.650Z,2.80
2022-07-30T02:10:42.724Z,3.20
2022-07-30T02:10:52.608Z,3.40
2022-07-30T02:11:02.598Z,3.70
2022-07-30T02:11:12.585Z,3.50
2022-07-30T02:11:22.710Z,3.60
2022-07-30T02:11:32.708Z,3.20
2022-07-30T02:11:42.686Z,3.40
2022-07-30T02:11:52.719Z,3.40
2022-07-30T02:12:02.611Z,3.60
2022-07-30T02:12:12.590Z,3.10
2022-07-30T02:12:22.625Z,3.10
2022-07-30T02:12:32.590Z,3.30
2022-07-30T02:12:42.587Z,3.70
2022-07-30T02:12:52.614Z,3.60
2022-07-30T02:13:02.719Z,3.20